Terminal Aerodrome Forecast
Issued by NWS

Home | Current Version | Previous Version | Text Only | Print | Product List | Glossary On
Versions: 1 2 3 4 5 6 7 8 9 10 11
384
FTUS43 KAPX 260520
TAFTVC
TAF
KTVC 260520Z 2606/2706 13005KT P6SM FEW050 BKN250
     FM261000 15007KT P6SM FEW030 OVC110
     FM261500 15011G23KT P6SM OVC040
     FM261900 17013G25KT P6SM BKN020=

USA.gov is the U.S. government's official web portal to all federal, state and local government web resources and services.